sensor_id;sensor_type;location;lat;lon;timestamp;temperature;humidity
1447;DHT22;717;51.522;7.266;2023-06-26T00:01:11;27.70;90.00
1447;DHT22;717;51.522;7.266;2023-06-26T00:03:43;27.70;90.00
1447;DHT22;717;51.522;7.266;2023-06-26T00:06:11;27.70;90.00
1447;DHT22;717;51.522;7.266;2023-06-26T00:08:40;27.60;90.00
1447;DHT22;717;51.522;7.266;2023-06-26T00:11:09;27.60;89.60
1447;DHT22;717;51.522;7.266;2023-06-26T00:13:37;27.60;89.30
1447;DHT22;717;51.522;7.266;2023-06-26T00:16:06;27.60;89.30
1447;DHT22;717;51.522;7.266;2023-06-26T00:18:34;27.60;89.10
1447;DHT22;717;51.522;7.266;2023-06-26T00:21:05;27.60;88.80
1447;DHT22;717;51.522;7.266;2023-06-26T00:23:34;27.50;88.60
1447;DHT22;717;51.522;7.266;2023-06-26T00:26:04;27.50;88.50
1447;DHT22;717;51.522;7.266;2023-06-26T00:28:32;27.50;88.40
1447;DHT22;717;51.522;7.266;2023-06-26T00:31:01;27.50;88.50
1447;DHT22;717;51.522;7.266;2023-06-26T00:33:30;27.50;88.40
1447;DHT22;717;51.522;7.266;2023-06-26T00:35:59;27.50;88.70
1447;DHT22;717;51.522;7.266;2023-06-26T00:38:30;27.50;88.50
1447;DHT22;717;51.522;7.266;2023-06-26T00:40:59;27.50;88.10
1447;DHT22;717;51.522;7.266;2023-06-26T00:43:27;27.50;88.00
1447;DHT22;717;51.522;7.266;2023-06-26T00:45:56;27.50;88.00
1447;DHT22;717;51.522;7.266;2023-06-26T00:48:24;27.40;87.90
1447;DHT22;717;51.522;7.266;2023-06-26T00:50:53;27.40;87.80
1447;DHT22;717;51.522;7.266;2023-06-26T00:53:22;27.40;87.90
1447;DHT22;717;51.522;7.266;2023-06-26T00:55:53;27.40;88.10
1447;DHT22;717;51.522;7.266;2023-06-26T00:58:24;27.40;87.80
1447;DHT22;717;51.522;7.266;2023-06-26T01:00:53;27.40;88.00
1447;DHT22;717;51.522;7.266;2023-06-26T01:03:22;27.40;87.90
1447;DHT22;717;51.522;7.266;2023-06-26T01:05:52;27.40;87.90
1447;DHT22;717;51.522;7.266;2023-06-26T01:08:22;27.40;87.90
1447;DHT22;717;51.522;7.266;2023-06-26T01:10:54;27.30;87.80
1447;DHT22;717;51.522;7.266;2023-06-26T01:13:23;27.30;87.80
1447;DHT22;717;51.522;7.266;2023-06-26T01:15:52;27.30;88.00
1447;DHT22;717;51.522;7.266;2023-06-26T01:18:21;27.30;88.10
1447;DHT22;717;51.522;7.266;2023-06-26T01:20:50;27.30;88.20
1447;DHT22;717;51.522;7.266;2023-06-26T01:23:22;27.30;88.30
1447;DHT22;717;51.522;7.266;2023-06-26T01:26:14;27.30;88.40
1447;DHT22;717;51.522;7.266;2023-06-26T01:28:44;27.30;88.20
1447;DHT22;717;51.522;7.266;2023-06-26T01:31:14;27.20;88.00
1447;DHT22;717;51.522;7.266;2023-06-26T01:33:43;27.20;88.10
1447;DHT22;717;51.522;7.266;2023-06-26T01:36:12;27.20;88.20
1447;DHT22;717;51.522;7.266;2023-06-26T01:38:41;27.20;88.50
1447;DHT22;717;51.522;7.266;2023-06-26T01:41:10;27.10;88.70
1447;DHT22;717;51.522;7.266;2023-06-26T01:43:55;27.10;88.70
1447;DHT22;717;51.522;7.266;2023-06-26T01:46:30;27.20;89.00
1447;DHT22;717;51.522;7.266;2023-06-26T01:49:05;27.10;89.00
1447;DHT22;717;51.522;7.266;2023-06-26T01:51:39;27.10;89.00
1447;DHT22;717;51.522;7.266;2023-06-26T01:54:13;27.00;89.10
1447;DHT22;717;51.522;7.266;2023-06-26T01:56:49;27.00;89.20
1447;DHT22;717;51.522;7.266;2023-06-26T01:59:29;27.00;88.80
1447;DHT22;717;51.522;7.266;2023-06-26T02:02:02;27.00;88.80
1447;DHT22;717;51.522;7.266;2023-06-26T02:04:39;27.00;88.80
1447;DHT22;717;51.522;7.266;2023-06-26T02:07:11;27.00;88.70
1447;DHT22;717;51.522;7.266;2023-06-26T02:09:43;27.00;88.60
1447;DHT22;717;51.522;7.266;2023-06-26T02:12:15;26.90;88.80
1447;DHT22;717;51.522;7.266;2023-06-26T02:14:50;26.90;88.80
1447;DHT22;717;51.522;7.266;2023-06-26T02:17:22;26.90;88.70
1447;DHT22;717;51.522;7.266;2023-06-26T02:19:54;26.90;88.60
1447;DHT22;717;51.522;7.266;2023-06-26T02:22:26;26.90;88.40
1447;DHT22;717;51.522;7.266;2023-06-26T02:24:58;26.90;88.40
1447;DHT22;717;51.522;7.266;2023-06-26T02:27:30;26.80;88.50
1447;DHT22;717;51.522;7.266;2023-06-26T02:30:07;26.80;88.50
1447;DHT22;717;51.522;7.266;2023-06-26T02:32:39;26.80;88.60
1447;DHT22;717;51.522;7.266;2023-06-26T02:35:11;26.80;88.80
1447;DHT22;717;51.522;7.266;2023-06-26T02:37:43;26.80;89.00
1447;DHT22;717;51.522;7.266;2023-06-26T02:40:16;26.80;89.30
1447;DHT22;717;51.522;7.266;2023-06-26T02:42:47;26.80;89.30
1447;DHT22;717;51.522;7.266;2023-06-26T02:45:22;26.70;89.20
1447;DHT22;717;51.522;7.266;2023-06-26T02:47:54;26.70;89.20
1447;DHT22;717;51.522;7.266;2023-06-26T02:50:26;26.70;89.20
1447;DHT22;717;51.522;7.266;2023-06-26T02:52:58;26.70;89.20
1447;DHT22;717;51.522;7.266;2023-06-26T02:55:31;26.70;89.00
1447;DHT22;717;51.522;7.266;2023-06-26T02:58:03;26.70;88.60
1447;DHT22;717;51.522;7.266;2023-06-26T03:00:38;26.60;88.80
1447;DHT22;717;51.522;7.266;2023-06-26T03:03:10;26.60;88.90
1447;DHT22;717;51.522;7.266;2023-06-26T03:05:42;26.60;89.00
1447;DHT22;717;51.522;7.266;2023-06-26T03:08:14;26.60;89.00
1447;DHT22;717;51.522;7.266;2023-06-26T03:10:46;26.60;88.90
1447;DHT22;717;51.522;7.266;2023-06-26T03:13:18;26.60;89.00
1447;DHT22;717;51.522;7.266;2023-06-26T03:15:53;26.60;88.80
1447;DHT22;717;51.522;7.266;2023-06-26T03:18:25;26.60;88.70
1447;DHT22;717;51.522;7.266;2023-06-26T03:20:58;26.50;88.90
1447;DHT22;717;51.522;7.266;2023-06-26T03:23:30;26.50;88.80
1447;DHT22;717;51.522;7.266;2023-06-26T03:26:02;26.50;88.40
1447;DHT22;717;51.522;7.266;2023-06-26T03:28:34;26.50;88.10
1447;DHT22;717;51.522;7.266;2023-06-26T03:31:09;26.50;87.80
1447;DHT22;717;51.522;7.266;2023-06-26T03:33:41;26.40;87.60
1447;DHT22;717;51.522;7.266;2023-06-26T03:36:13;26.40;87.50
1447;DHT22;717;51.522;7.266;2023-06-26T03:38:45;26.40;87.60
1447;DHT22;717;51.522;7.266;2023-06-26T03:41:17;26.30;87.50
1447;DHT22;717;51.522;7.266;2023-06-26T03:43:49;26.30;87.50
1447;DHT22;717;51.522;7.266;2023-06-26T03:46:24;26.30;87.50
1447;DHT22;717;51.522;7.266;2023-06-26T03:48:56;26.30;87.70
1447;DHT22;717;51.522;7.266;2023-06-26T03:51:28;26.30;88.00
1447;DHT22;717;51.522;7.266;2023-06-26T03:54:01;26.20;88.20
1447;DHT22;717;51.522;7.266;2023-06-26T03:56:32;26.20;88.60
1447;DHT22;717;51.522;7.266;2023-06-26T03:59:04;26.20;89.00
1447;DHT22;717;51.522;7.266;2023-06-26T04:01:39;26.10;89.20
1447;DHT22;717;51.522;7.266;2023-06-26T04:04:11;26.10;89.60
1447;DHT22;717;51.522;7.266;2023-06-26T04:06:43;26.10;90.00
1447;DHT22;717;51.522;7.266;2023-06-26T04:09:15;26.00;90.00
1447;DHT22;717;51.522;7.266;2023-06-26T04:11:47;26.00;90.10
1447;DHT22;717;51.522;7.266;2023-06-26T04:14:19;26.00;90.30
1447;DHT22;717;51.522;7.266;2023-06-26T04:16:54;26.00;90.40
1447;DHT22;717;51.522;7.266;2023-06-26T04:19:26;26.00;90.70
1447;DHT22;717;51.522;7.266;2023-06-26T04:21:58;26.00;90.80
1447;DHT22;717;51.522;7.266;2023-06-26T04:24:30;26.00;91.00
1447;DHT22;717;51.522;7.266;2023-06-26T04:27:03;25.90;91.10
1447;DHT22;717;51.522;7.266;2023-06-26T04:29:35;25.90;91.30
1447;DHT22;717;51.522;7.266;2023-06-26T04:32:10;25.90;91.40
1447;DHT22;717;51.522;7.266;2023-06-26T04:34:42;25.80;91.50
1447;DHT22;717;51.522;7.266;2023-06-26T04:37:14;25.80;91.60
1447;DHT22;717;51.522;7.266;2023-06-26T04:39:47;25.80;91.80
1447;DHT22;717;51.522;7.266;2023-06-26T04:42:18;25.70;91.90
1447;DHT22;717;51.522;7.266;2023-06-26T04:44:51;25.70;92.10
1447;DHT22;717;51.522;7.266;2023-06-26T04:47:25;25.70;92.10
1447;DHT22;717;51.522;7.266;2023-06-26T04:49:57;25.70;92.20
1447;DHT22;717;51.522;7.266;2023-06-26T04:52:30;25.70;92.30
1447;DHT22;717;51.522;7.266;2023-06-26T04:55:02;25.60;92.40
1447;DHT22;717;51.522;7.266;2023-06-26T04:57:34;25.60;92.50
1447;DHT22;717;51.522;7.266;2023-06-26T06:20:24;25.50;94.00
1447;DHT22;717;51.522;7.266;2023-06-26T06:22:52;25.50;93.90
1447;DHT22;717;51.522;7.266;2023-06-26T06:25:21;25.50;93.90
1447;DHT22;717;51.522;7.266;2023-06-26T06:27:49;25.50;94.00
1447;DHT22;717;51.522;7.266;2023-06-26T06:30:18;25.50;94.10
1447;DHT22;717;51.522;7.266;2023-06-26T06:32:46;25.50;94.10
1447;DHT22;717;51.522;7.266;2023-06-26T06:35:17;25.50;94.20
1447;DHT22;717;51.522;7.266;2023-06-26T06:37:48;25.50;94.20
1447;DHT22;717;51.522;7.266;2023-06-26T06:40:17;25.50;94.30
1447;DHT22;717;51.522;7.266;2023-06-26T06:42:47;25.60;94.30
1447;DHT22;717;51.522;7.266;2023-06-26T06:45:16;25.50;94.30
1447;DHT22;717;51.522;7.266;2023-06-26T06:47:44;25.50;94.40
1447;DHT22;717;51.522;7.266;2023-06-26T06:50:13;25.50;94.60
1447;DHT22;717;51.522;7.266;2023-06-26T06:52:43;25.50;94.80
1447;DHT22;717;51.522;7.266;2023-06-26T06:55:14;25.50;95.00
1447;DHT22;717;51.522;7.266;2023-06-26T06:57:43;25.50;95.20
1447;DHT22;717;51.522;7.266;2023-06-26T07:00:13;25.40;95.30
1447;DHT22;717;51.522;7.266;2023-06-26T07:02:44;25.40;95.50
1447;DHT22;717;51.522;7.266;2023-06-26T07:05:13;25.40;95.70
1447;DHT22;717;51.522;7.266;2023-06-26T07:07:41;25.30;95.80
1447;DHT22;717;51.522;7.266;2023-06-26T07:10:13;25.30;95.80
1447;DHT22;717;51.522;7.266;2023-06-26T07:12:42;25.30;95.80
1447;DHT22;717;51.522;7.266;2023-06-26T07:15:11;25.30;95.80
1447;DHT22;717;51.522;7.266;2023-06-26T07:17:39;25.30;95.80
1447;DHT22;717;51.522;7.266;2023-06-26T07:20:08;25.20;95.70
1447;DHT22;717;51.522;7.266;2023-06-26T07:57:36;25.40;96.50
1447;DHT22;717;51.522;7.266;2023-06-26T08:00:06;25.40;96.40
1447;DHT22;717;51.522;7.266;2023-06-26T08:02:35;25.40;96.50
1447;DHT22;717;51.522;7.266;2023-06-26T08:05:05;25.40;96.50
1447;DHT22;717;51.522;7.266;2023-06-26T08:07:33;25.40;96.50
1447;DHT22;717;51.522;7.266;2023-06-26T08:10:02;25.40;96.50
1447;DHT22;717;51.522;7.266;2023-06-26T08:12:31;25.40;96.50
1447;DHT22;717;51.522;7.266;2023-06-26T08:15:02;25.50;96.50
1447;DHT22;717;51.522;7.266;2023-06-26T08:17:32;25.50;96.50
1447;DHT22;717;51.522;7.266;2023-06-26T08:20:00;25.50;96.50
1447;DHT22;717;51.522;7.266;2023-06-26T08:22:29;25.50;96.50
1447;DHT22;717;51.522;7.266;2023-06-26T08:24:57;25.50;96.50
1447;DHT22;717;51.522;7.266;2023-06-26T08:27:26;25.60;96.60
1447;DHT22;717;51.522;7.266;2023-06-26T08:29:54;25.60;96.60
1447;DHT22;717;51.522;7.266;2023-06-26T08:32:25;25.70;96.60
1447;DHT22;717;51.522;7.266;2023-06-26T08:34:54;25.70;96.60
1447;DHT22;717;51.522;7.266;2023-06-26T08:37:22;25.60;96.50
1447;DHT22;717;51.522;7.266;2023-06-26T08:39:51;25.70;96.60
1447;DHT22;717;51.522;7.266;2023-06-26T08:42:19;25.70;96.70
1447;DHT22;717;51.522;7.266;2023-06-26T08:44:48;25.70;96.70
1447;DHT22;717;51.522;7.266;2023-06-26T08:47:17;25.70;96.60
1447;DHT22;717;51.522;7.266;2023-06-26T08:49:53;25.80;96.60
1447;DHT22;717;51.522;7.266;2023-06-26T08:52:31;25.70;96.60
1447;DHT22;717;51.522;7.266;2023-06-26T08:55:02;25.80;96.70
1447;DHT22;717;51.522;7.266;2023-06-26T08:57:35;25.70;96.60
1447;DHT22;717;51.522;7.266;2023-06-26T09:00:05;25.70;96.40
1447;DHT22;717;51.522;7.266;2023-06-26T09:02:35;25.70;96.20
1447;DHT22;717;51.522;7.266;2023-06-26T09:05:07;25.70;96.10
1447;DHT22;717;51.522;7.266;2023-06-26T09:07:36;25.70;96.10
1447;DHT22;717;51.522;7.266;2023-06-26T09:10:05;25.70;96.10
1447;DHT22;717;51.522;7.266;2023-06-26T09:12:35;25.70;96.10
1447;DHT22;717;51.522;7.266;2023-06-26T09:15:05;25.80;96.10
1447;DHT22;717;51.522;7.266;2023-06-26T09:17:39;25.80;96.20
1447;DHT22;717;51.522;7.266;2023-06-26T09:20:10;25.80;96.10
1447;DHT22;717;51.522;7.266;2023-06-26T09:22:41;25.90;96.20
1447;DHT22;717;51.522;7.266;2023-06-26T09:25:10;25.80;96.00
1447;DHT22;717;51.522;7.266;2023-06-26T09:27:38;25.80;96.00
1447;DHT22;717;51.522;7.266;2023-06-26T09:30:08;25.80;95.90
1447;DHT22;717;51.522;7.266;2023-06-26T09:32:37;25.80;95.80
1447;DHT22;717;51.522;7.266;2023-06-26T09:35:05;25.80;95.90
1447;DHT22;717;51.522;7.266;2023-06-26T09:37:37;25.90;96.00
1447;DHT22;717;51.522;7.266;2023-06-26T09:40:07;25.90;96.20
1447;DHT22;717;51.522;7.266;2023-06-26T09:42:35;26.00;96.30
1447;DHT22;717;51.522;7.266;2023-06-26T09:45:04;26.00;96.00
1447;DHT22;717;51.522;7.266;2023-06-26T09:47:34;26.00;95.90
1447;DHT22;717;51.522;7.266;2023-06-26T09:50:03;26.10;95.90
1447;DHT22;717;51.522;7.266;2023-06-26T09:52:32;26.10;95.80
1447;DHT22;717;51.522;7.266;2023-06-26T09:55:12;26.10;95.70
1447;DHT22;717;51.522;7.266;2023-06-26T09:57:42;26.20;95.70
1447;DHT22;717;51.522;7.266;2023-06-26T10:00:13;26.20;95.70
1447;DHT22;717;51.522;7.266;2023-06-26T10:02:42;26.20;95.50
1447;DHT22;717;51.522;7.266;2023-06-26T10:05:11;26.30;95.30
1447;DHT22;717;51.522;7.266;2023-06-26T10:07:40;26.30;95.10
1447;DHT22;717;51.522;7.266;2023-06-26T10:10:13;26.30;94.90
1447;DHT22;717;51.522;7.266;2023-06-26T10:12:45;26.30;94.80
1447;DHT22;717;51.522;7.266;2023-06-26T10:15:16;26.30;94.90
1447;DHT22;717;51.522;7.266;2023-06-26T10:17:46;26.40;94.90
1447;DHT22;717;51.522;7.266;2023-06-26T10:20:17;26.40;94.80
1447;DHT22;717;51.522;7.266;2023-06-26T10:22:46;26.40;94.50
1447;DHT22;717;51.522;7.266;2023-06-26T10:25:19;26.40;94.40
1447;DHT22;717;51.522;7.266;2023-06-26T10:27:50;26.50;94.30
1447;DHT22;717;51.522;7.266;2023-06-26T10:30:24;26.50;94.20
1447;DHT22;717;51.522;7.266;2023-06-26T10:32:55;26.50;94.20
1447;DHT22;717;51.522;7.266;2023-06-26T10:35:24;26.50;93.90
1447;DHT22;717;51.522;7.266;2023-06-26T10:38:00;26.50;93.40
1447;DHT22;717;51.522;7.266;2023-06-26T10:40:40;26.50;93.30
1447;DHT22;717;51.522;7.266;2023-06-26T10:43:12;26.50;93.30
1447;DHT22;717;51.522;7.266;2023-06-26T10:45:44;26.60;93.30
1447;DHT22;717;51.522;7.266;2023-06-26T10:48:18;26.60;93.20
1447;DHT22;717;51.522;7.266;2023-06-26T10:50:47;26.60;93.10
1447;DHT22;717;51.522;7.266;2023-06-26T10:53:22;26.60;92.90
1447;DHT22;717;51.522;7.266;2023-06-26T10:55:59;26.60;92.90
1447;DHT22;717;51.522;7.266;2023-06-26T10:58:32;26.60;92.80
1447;DHT22;717;51.522;7.266;2023-06-26T11:01:20;26.60;92.80
1447;DHT22;717;51.522;7.266;2023-06-26T11:06:40;26.80;92.70
1447;DHT22;717;51.522;7.266;2023-06-26T11:09:11;26.80;92.30
1447;DHT22;717;51.522;7.266;2023-06-26T11:11:58;26.90;92.30
1447;DHT22;717;51.522;7.266;2023-06-26T11:14:31;27.00;92.00
1447;DHT22;717;51.522;7.266;2023-06-26T11:17:03;27.00;91.90
1447;DHT22;717;51.522;7.266;2023-06-26T11:19:31;27.10;91.70
1447;DHT22;717;51.522;7.266;2023-06-26T11:22:02;27.10;91.80
1447;DHT22;717;51.522;7.266;2023-06-26T11:24:31;27.00;91.90
1447;DHT22;717;51.522;7.266;2023-06-26T11:27:04;27.00;92.10
1447;DHT22;717;51.522;7.266;2023-06-26T11:29:33;27.00;92.00
1447;DHT22;717;51.522;7.266;2023-06-26T11:32:04;27.00;91.90
1447;DHT22;717;51.522;7.266;2023-06-26T11:34:36;27.00;91.80
1447;DHT22;717;51.522;7.266;2023-06-26T11:37:05;26.90;91.80
1447;DHT22;717;51.522;7.266;2023-06-26T11:39:34;26.90;91.90
1447;DHT22;717;51.522;7.266;2023-06-26T11:42:05;26.90;91.80
1447;DHT22;717;51.522;7.266;2023-06-26T11:44:40;27.00;91.90
1447;DHT22;717;51.522;7.266;2023-06-26T11:47:12;27.00;91.70
1447;DHT22;717;51.522;7.266;2023-06-26T11:49:42;27.10;91.60
1447;DHT22;717;51.522;7.266;2023-06-26T11:52:11;27.10;91.40
1447;DHT22;717;51.522;7.266;2023-06-26T11:54:40;27.10;91.00
1447;DHT22;717;51.522;7.266;2023-06-26T11:57:14;27.10;91.00
1447;DHT22;717;51.522;7.266;2023-06-26T11:59:43;27.20;90.70
1447;DHT22;717;51.522;7.266;2023-06-26T12:02:14;27.20;90.50
1447;DHT22;717;51.522;7.266;2023-06-26T12:04:43;27.20;90.30
1447;DHT22;717;51.522;7.266;2023-06-26T12:07:13;27.20;90.20
1447;DHT22;717;51.522;7.266;2023-06-26T12:09:42;27.30;90.00
1447;DHT22;717;51.522;7.266;2023-06-26T12:12:16;27.30;89.60
1447;DHT22;717;51.522;7.266;2023-06-26T12:14:46;27.30;88.70
1447;DHT22;717;51.522;7.266;2023-06-26T12:17:15;27.30;88.40
1447;DHT22;717;51.522;7.266;2023-06-26T12:19:45;27.30;88.20
1447;DHT22;717;51.522;7.266;2023-06-26T12:22:15;27.30;87.60
1447;DHT22;717;51.522;7.266;2023-06-26T12:24:45;27.20;86.50
1447;DHT22;717;51.522;7.266;2023-06-26T12:27:18;27.20;85.70
1447;DHT22;717;51.522;7.266;2023-06-26T12:29:50;27.20;85.50
1447;DHT22;717;51.522;7.266;2023-06-26T12:32:22;27.20;86.00
1447;DHT22;717;51.522;7.266;2023-06-26T12:34:51;27.20;86.30
1447;DHT22;717;51.522;7.266;2023-06-26T12:37:20;27.20;86.30
1447;DHT22;717;51.522;7.266;2023-06-26T12:39:49;27.20;86.20
1447;DHT22;717;51.522;7.266;2023-06-26T12:42:22;27.30;85.50
1447;DHT22;717;51.522;7.266;2023-06-26T12:44:52;27.40;85.10
1447;DHT22;717;51.522;7.266;2023-06-26T12:47:25;27.40;84.50
1447;DHT22;717;51.522;7.266;2023-06-26T12:49:54;27.40;83.60
1447;DHT22;717;51.522;7.266;2023-06-26T12:52:23;27.40;83.00
1447;DHT22;717;51.522;7.266;2023-06-26T12:54:52;27.40;82.20
1447;DHT22;717;51.522;7.266;2023-06-26T12:57:24;27.40;82.40
1447;DHT22;717;51.522;7.266;2023-06-26T12:59:52;27.40;81.80
1447;DHT22;717;51.522;7.266;2023-06-26T13:02:21;27.40;81.20
1447;DHT22;717;51.522;7.266;2023-06-26T13:04:50;27.40;80.90
1447;DHT22;717;51.522;7.266;2023-06-26T13:07:18;27.50;80.20
1447;DHT22;717;51.522;7.266;2023-06-26T13:09:50;27.50;79.40
1447;DHT22;717;51.522;7.266;2023-06-26T13:12:19;27.50;79.30
1447;DHT22;717;51.522;7.266;2023-06-26T13:14:50;27.50;79.20
1447;DHT22;717;51.522;7.266;2023-06-26T13:17:19;27.50;79.90
1447;DHT22;717;51.522;7.266;2023-06-26T13:19:47;27.50;80.70
1447;DHT22;717;51.522;7.266;2023-06-26T13:22:16;27.60;80.60
1447;DHT22;717;51.522;7.266;2023-06-26T13:24:44;27.60;80.30
1447;DHT22;717;51.522;7.266;2023-06-26T13:27:13;27.70;80.60
1447;DHT22;717;51.522;7.266;2023-06-26T13:29:41;27.70;80.80
1447;DHT22;717;51.522;7.266;2023-06-26T13:32:12;27.60;79.30
1447;DHT22;717;51.522;7.266;2023-06-26T13:34:41;27.60;78.70
1447;DHT22;717;51.522;7.266;2023-06-26T13:37:10;27.60;79.20
1447;DHT22;717;51.522;7.266;2023-06-26T13:39:38;27.60;79.30
1447;DHT22;717;51.522;7.266;2023-06-26T13:42:08;27.60;78.90
1447;DHT22;717;51.522;7.266;2023-06-26T13:44:37;27.60;78.80
1447;DHT22;717;51.522;7.266;2023-06-26T13:47:06;27.60;78.50
1447;DHT22;717;51.522;7.266;2023-06-26T13:49:37;27.60;78.00
1447;DHT22;717;51.522;7.266;2023-06-26T13:52:07;27.70;77.30
1447;DHT22;717;51.522;7.266;2023-06-26T13:54:36;27.70;77.20
1447;DHT22;717;51.522;7.266;2023-06-26T13:57:06;27.70;76.30
1447;DHT22;717;51.522;7.266;2023-06-26T13:59:37;27.70;75.80
1447;DHT22;717;51.522;7.266;2023-06-26T14:02:07;27.70;75.50
1447;DHT22;717;51.522;7.266;2023-06-26T14:04:38;27.70;74.60
1447;DHT22;717;51.522;7.266;2023-06-26T14:07:07;27.80;73.90
1447;DHT22;717;51.522;7.266;2023-06-26T14:09:35;27.80;73.20
1447;DHT22;717;51.522;7.266;2023-06-26T14:12:05;27.80;73.30
1447;DHT22;717;51.522;7.266;2023-06-26T14:14:34;27.80;74.20
1447;DHT22;717;51.522;7.266;2023-06-26T14:17:03;27.90;74.60
1447;DHT22;717;51.522;7.266;2023-06-26T14:19:34;27.90;74.30
1447;DHT22;717;51.522;7.266;2023-06-26T14:22:05;27.90;73.90
1447;DHT22;717;51.522;7.266;2023-06-26T14:24:34;27.90;73.90
1447;DHT22;717;51.522;7.266;2023-06-26T14:27:03;27.90;74.10
1447;DHT22;717;51.522;7.266;2023-06-26T14:29:32;28.00;74.10
1447;DHT22;717;51.522;7.266;2023-06-26T14:32:00;28.00;73.50
1447;DHT22;717;51.522;7.266;2023-06-26T14:34:29;28.00;73.60
1447;DHT22;717;51.522;7.266;2023-06-26T14:36:57;28.00;72.40
1447;DHT22;717;51.522;7.266;2023-06-26T14:39:29;27.90;71.90
1447;DHT22;717;51.522;7.266;2023-06-26T14:41:57;27.90;72.30
1447;DHT22;717;51.522;7.266;2023-06-26T14:44:26;27.90;72.50
1447;DHT22;717;51.522;7.266;2023-06-26T14:46:55;27.90;72.10
1447;DHT22;717;51.522;7.266;2023-06-26T14:49:23;28.00;72.50
1447;DHT22;717;51.522;7.266;2023-06-26T14:51:52;28.00;72.60
1447;DHT22;717;51.522;7.266;2023-06-26T14:54:20;28.00;72.20
1447;DHT22;717;51.522;7.266;2023-06-26T14:56:52;28.00;72.90
1447;DHT22;717;51.522;7.266;2023-06-26T14:59:20;28.00;73.00
1447;DHT22;717;51.522;7.266;2023-06-26T15:01:49;28.00;73.80
1447;DHT22;717;51.522;7.266;2023-06-26T15:04:17;28.00;75.20
1447;DHT22;717;51.522;7.266;2023-06-26T15:06:46;27.90;75.50
1447;DHT22;717;51.522;7.266;2023-06-26T15:09:14;27.90;76.40
1447;DHT22;717;51.522;7.266;2023-06-26T15:11:43;27.90;77.10
1447;DHT22;717;51.522;7.266;2023-06-26T15:14:14;27.90;77.30
1447;DHT22;717;51.522;7.266;2023-06-26T15:16:43;27.90;77.30
1447;DHT22;717;51.522;7.266;2023-06-26T15:19:11;27.80;77.10
1447;DHT22;717;51.522;7.266;2023-06-26T15:21:40;27.80;76.60
1447;DHT22;717;51.522;7.266;2023-06-26T15:24:08;27.80;77.30
1447;DHT22;717;51.522;7.266;2023-06-26T15:26:37;27.80;77.60
1447;DHT22;717;51.522;7.266;2023-06-26T15:29:06;27.80;77.30
1447;DHT22;717;51.522;7.266;2023-06-26T15:31:37;27.80;77.40
1447;DHT22;717;51.522;7.266;2023-06-26T15:34:05;27.80;77.30
1447;DHT22;717;51.522;7.266;2023-06-26T15:36:34;27.70;77.50
1447;DHT22;717;51.522;7.266;2023-06-26T15:39:03;27.70;77.50
1447;DHT22;717;51.522;7.266;2023-06-26T15:41:31;27.70;77.50
1447;DHT22;717;51.522;7.266;2023-06-26T15:44:02;27.70;76.90
1447;DHT22;717;51.522;7.266;2023-06-26T15:46:31;27.60;76.60
1447;DHT22;717;51.522;7.266;2023-06-26T15:49:02;27.60;77.00
1447;DHT22;717;51.522;7.266;2023-06-26T15:51:31;27.50;77.40
1447;DHT22;717;51.522;7.266;2023-06-26T15:54:01;27.40;77.50
1447;DHT22;717;51.522;7.266;2023-06-26T15:56:30;27.40;77.60
1447;DHT22;717;51.522;7.266;2023-06-26T15:58:59;27.40;77.70
1447;DHT22;717;51.522;7.266;2023-06-26T16:01:27;27.40;77.40
1447;DHT22;717;51.522;7.266;2023-06-26T16:03:56;27.40;77.10
1447;DHT22;717;51.522;7.266;2023-06-26T16:06:27;27.30;76.60
1447;DHT22;717;51.522;7.266;2023-06-26T16:08:55;27.30;76.50
1447;DHT22;717;51.522;7.266;2023-06-26T16:11:24;27.20;76.10
1447;DHT22;717;51.522;7.266;2023-06-26T16:13:52;27.20;76.40
1447;DHT22;717;51.522;7.266;2023-06-26T16:16:21;27.10;76.20
1447;DHT22;717;51.522;7.266;2023-06-26T16:18:49;27.10;76.00
1447;DHT22;717;51.522;7.266;2023-06-26T16:21:18;27.00;75.90
1447;DHT22;717;51.522;7.266;2023-06-26T16:23:50;27.00;75.80
1447;DHT22;717;51.522;7.266;2023-06-26T16:26:19;27.00;75.80
1447;DHT22;717;51.522;7.266;2023-06-26T16:28:47;26.90;76.00
1447;DHT22;717;51.522;7.266;2023-06-26T16:31:16;26.90;76.30
1447;DHT22;717;51.522;7.266;2023-06-26T16:33:45;26.80;76.30
1447;DHT22;717;51.522;7.266;2023-06-26T16:36:14;26.80;76.70
1447;DHT22;717;51.522;7.266;2023-06-26T16:38:42;26.80;76.90
1447;DHT22;717;51.522;7.266;2023-06-26T16:41:13;26.80;77.00
1447;DHT22;717;51.522;7.266;2023-06-26T16:43:42;26.80;77.10
1447;DHT22;717;51.522;7.266;2023-06-26T16:46:11;26.80;76.90
1447;DHT22;717;51.522;7.266;2023-06-26T16:48:39;26.80;76.80
1447;DHT22;717;51.522;7.266;2023-06-26T16:51:08;26.70;76.90
1447;DHT22;717;51.522;7.266;2023-06-26T16:53:36;26.70;76.80
1447;DHT22;717;51.522;7.266;2023-06-26T16:56:05;26.60;76.90
1447;DHT22;717;51.522;7.266;2023-06-26T16:58:37;26.60;77.00
1447;DHT22;717;51.522;7.266;2023-06-26T17:01:06;26.60;77.00
1447;DHT22;717;51.522;7.266;2023-06-26T17:03:34;26.60;77.00
1447;DHT22;717;51.522;7.266;2023-06-26T17:06:03;26.50;76.40
1447;DHT22;717;51.522;7.266;2023-06-26T17:08:33;26.50;76.10
1447;DHT22;717;51.522;7.266;2023-06-26T17:11:02;26.50;76.20
1447;DHT22;717;51.522;7.266;2023-06-26T17:13:30;26.50;76.40
1447;DHT22;717;51.522;7.266;2023-06-26T17:16:02;26.40;76.00
1447;DHT22;717;51.522;7.266;2023-06-26T17:18:30;26.40;76.00
1447;DHT22;717;51.522;7.266;2023-06-26T17:20:59;26.30;75.80
1447;DHT22;717;51.522;7.266;2023-06-26T17:23:28;26.30;75.40
1447;DHT22;717;51.522;7.266;2023-06-26T17:25:57;26.30;75.50
1447;DHT22;717;51.522;7.266;2023-06-26T17:28:25;26.30;75.50
1447;DHT22;717;51.522;7.266;2023-06-26T17:30:56;26.20;75.40
1447;DHT22;717;51.522;7.266;2023-06-26T17:33:27;26.30;75.80
1447;DHT22;717;51.522;7.266;2023-06-26T17:35:56;26.20;75.40
1447;DHT22;717;51.522;7.266;2023-06-26T17:38:24;26.30;75.00
1447;DHT22;717;51.522;7.266;2023-06-26T17:40:53;26.20;74.80
1447;DHT22;717;51.522;7.266;2023-06-26T17:43:22;26.20;75.10
1447;DHT22;717;51.522;7.266;2023-06-26T17:45:50;26.20;75.20
1447;DHT22;717;51.522;7.266;2023-06-26T17:48:19;26.20;75.20
1447;DHT22;717;51.522;7.266;2023-06-26T17:50:52;26.20;75.30
1447;DHT22;717;51.522;7.266;2023-06-26T17:53:21;26.20;75.00
1447;DHT22;717;51.522;7.266;2023-06-26T17:55:49;26.20;75.10
1447;DHT22;717;51.522;7.266;2023-06-26T17:58:18;26.10;74.70
1447;DHT22;717;51.522;7.266;2023-06-26T18:00:46;26.10;75.20
1447;DHT22;717;51.522;7.266;2023-06-26T18:03:14;26.10;75.20
1447;DHT22;717;51.522;7.266;2023-06-26T18:05:43;26.10;75.30
1447;DHT22;717;51.522;7.266;2023-06-26T18:08:14;26.10;75.20
1447;DHT22;717;51.522;7.266;2023-06-26T18:10:43;26.00;75.20
1447;DHT22;717;51.522;7.266;2023-06-26T18:13:11;26.00;75.00
1447;DHT22;717;51.522;7.266;2023-06-26T18:15:40;26.00;75.90
1447;DHT22;717;51.522;7.266;2023-06-26T18:18:08;26.00;74.50
1447;DHT22;717;51.522;7.266;2023-06-26T18:20:37;26.00;74.30
1447;DHT22;717;51.522;7.266;2023-06-26T18:23:05;26.00;74.10
1447;DHT22;717;51.522;7.266;2023-06-26T18:25:37;26.00;74.40
1447;DHT22;717;51.522;7.266;2023-06-26T18:28:06;26.00;74.40
1447;DHT22;717;51.522;7.266;2023-06-26T18:30:35;26.00;74.30
1447;DHT22;717;51.522;7.266;2023-06-26T18:33:03;26.00;74.60
1447;DHT22;717;51.522;7.266;2023-06-26T18:35:32;26.00;74.30